sensor_id;sensor_type;location;lat;lon;timestamp;P1;durP1;ratioP1;P2;durP2;ratioP2
43823;SDS011;29470;53.550;9.926;2023-04-29T00:02:10;19.83;;;11.52;;
43823;SDS011;29470;53.550;9.926;2023-04-29T00:07:15;23.17;;;11.90;;
43823;SDS011;29470;53.550;9.926;2023-04-29T00:12:19;21.38;;;11.75;;
43823;SDS011;29470;53.550;9.926;2023-04-29T00:17:24;20.30;;;12.07;;
43823;SDS011;29470;53.550;9.926;2023-04-29T00:22:37;22.80;;;12.45;;
43823;SDS011;29470;53.550;9.926;2023-04-29T00:27:47;21.08;;;12.38;;
43823;SDS011;29470;53.550;9.926;2023-04-29T00:32:51;22.08;;;12.70;;
43823;SDS011;29470;53.550;9.926;2023-04-29T00:37:58;24.80;;;12.73;;
43823;SDS011;29470;53.550;9.926;2023-04-29T00:43:01;24.75;;;13.93;;
43823;SDS011;29470;53.550;9.926;2023-04-29T00:48:04;21.75;;;12.27;;
43823;SDS011;29470;53.550;9.926;2023-04-29T00:53:09;20.33;;;12.55;;
43823;SDS011;29470;53.550;9.926;2023-04-29T00:58:32;23.52;;;12.10;;
43823;SDS011;29470;53.550;9.926;2023-04-29T01:03:37;23.42;;;12.93;;
43823;SDS011;29470;53.550;9.926;2023-04-29T01:08:47;19.52;;;11.80;;
43823;SDS011;29470;53.550;9.926;2023-04-29T01:14:03;19.55;;;12.55;;
43823;SDS011;29470;53.550;9.926;2023-04-29T01:19:12;22.20;;;12.73;;
43823;SDS011;29470;53.550;9.926;2023-04-29T01:24:23;22.38;;;12.70;;
43823;SDS011;29470;53.550;9.926;2023-04-29T01:29:28;24.50;;;13.20;;
43823;SDS011;29470;53.550;9.926;2023-04-29T01:34:40;21.27;;;12.77;;
43823;SDS011;29470;53.550;9.926;2023-04-29T01:39:54;20.23;;;12.55;;
43823;SDS011;29470;53.550;9.926;2023-04-29T01:45:05;22.92;;;12.32;;
43823;SDS011;29470;53.550;9.926;2023-04-29T01:50:12;25.50;;;13.13;;
43823;SDS011;29470;53.550;9.926;2023-04-29T01:55:17;22.52;;;12.38;;
43823;SDS011;29470;53.550;9.926;2023-04-29T02:00:40;23.15;;;12.65;;
43823;SDS011;29470;53.550;9.926;2023-04-29T02:05:43;22.80;;;13.15;;
43823;SDS011;29470;53.550;9.926;2023-04-29T02:10:54;22.90;;;13.38;;
43823;SDS011;29470;53.550;9.926;2023-04-29T02:16:10;25.25;;;13.05;;
43823;SDS011;29470;53.550;9.926;2023-04-29T02:21:24;22.95;;;14.00;;
43823;SDS011;29470;53.550;9.926;2023-04-29T02:26:30;25.67;;;14.15;;
43823;SDS011;29470;53.550;9.926;2023-04-29T02:31:34;24.75;;;14.13;;
43823;SDS011;29470;53.550;9.926;2023-04-29T02:36:37;26.45;;;14.23;;
43823;SDS011;29470;53.550;9.926;2023-04-29T02:41:42;25.50;;;14.75;;
43823;SDS011;29470;53.550;9.926;2023-04-29T02:46:45;29.10;;;15.63;;
43823;SDS011;29470;53.550;9.926;2023-04-29T02:51:51;25.45;;;14.32;;
43823;SDS011;29470;53.550;9.926;2023-04-29T02:56:56;28.77;;;15.75;;
43823;SDS011;29470;53.550;9.926;2023-04-29T03:01:59;25.95;;;14.52;;
43823;SDS011;29470;53.550;9.926;2023-04-29T03:07:02;23.58;;;13.45;;
43823;SDS011;29470;53.550;9.926;2023-04-29T03:12:07;23.33;;;12.93;;
43823;SDS011;29470;53.550;9.926;2023-04-29T03:17:10;26.83;;;13.55;;
43823;SDS011;29470;53.550;9.926;2023-04-29T03:22:13;23.42;;;13.38;;
43823;SDS011;29470;53.550;9.926;2023-04-29T03:27:19;23.63;;;13.18;;
43823;SDS011;29470;53.550;9.926;2023-04-29T03:32:22;25.92;;;13.93;;
43823;SDS011;29470;53.550;9.926;2023-04-29T03:37:26;23.75;;;13.15;;
43823;SDS011;29470;53.550;9.926;2023-04-29T03:42:42;22.83;;;12.85;;
43823;SDS011;29470;53.550;9.926;2023-04-29T03:47:46;25.17;;;13.52;;
43823;SDS011;29470;53.550;9.926;2023-04-29T03:52:49;23.92;;;13.60;;
43823;SDS011;29470;53.550;9.926;2023-04-29T03:57:54;28.08;;;14.73;;
43823;SDS011;29470;53.550;9.926;2023-04-29T04:02:57;25.92;;;14.30;;
43823;SDS011;29470;53.550;9.926;2023-04-29T04:08:05;32.72;;;17.73;;
43823;SDS011;29470;53.550;9.926;2023-04-29T04:13:35;28.10;;;17.48;;
43823;SDS011;29470;53.550;9.926;2023-04-29T04:18:38;23.58;;;13.60;;
43823;SDS011;29470;53.550;9.926;2023-04-29T04:23:41;28.00;;;13.93;;
43823;SDS011;29470;53.550;9.926;2023-04-29T04:28:49;20.65;;;12.82;;
43823;SDS011;29470;53.550;9.926;2023-04-29T04:34:00;23.48;;;13.57;;
43823;SDS011;29470;53.550;9.926;2023-04-29T04:39:06;23.73;;;13.73;;
43823;SDS011;29470;53.550;9.926;2023-04-29T04:44:10;22.80;;;13.48;;
43823;SDS011;29470;53.550;9.926;2023-04-29T04:49:38;24.00;;;12.85;;
43823;SDS011;29470;53.550;9.926;2023-04-29T04:54:43;20.65;;;12.27;;
43823;SDS011;29470;53.550;9.926;2023-04-29T04:59:53;18.30;;;11.65;;
43823;SDS011;29470;53.550;9.926;2023-04-29T05:04:55;21.58;;;11.73;;
43823;SDS011;29470;53.550;9.926;2023-04-29T05:10:02;22.27;;;11.90;;
43823;SDS011;29470;53.550;9.926;2023-04-29T05:20:17;18.63;;;10.75;;
43823;SDS011;29470;53.550;9.926;2023-04-29T05:25:21;19.98;;;11.43;;
43823;SDS011;29470;53.550;9.926;2023-04-29T05:30:27;19.85;;;11.23;;
43823;SDS011;29470;53.550;9.926;2023-04-29T05:35:30;17.92;;;10.20;;
43823;SDS011;29470;53.550;9.926;2023-04-29T06:07:43;13.35;;;7.63;;
43823;SDS011;29470;53.550;9.926;2023-04-29T06:13:19;14.52;;;7.88;;
43823;SDS011;29470;53.550;9.926;2023-04-29T07:06:11;11.55;;;5.97;;
43823;SDS011;29470;53.550;9.926;2023-04-29T07:12:10;10.23;;;5.80;;
43823;SDS011;29470;53.550;9.926;2023-04-29T07:17:16;7.07;;;4.88;;
43823;SDS011;29470;53.550;9.926;2023-04-29T07:22:21;10.80;;;5.70;;
43823;SDS011;29470;53.550;9.926;2023-04-29T07:27:24;10.90;;;5.22;;
43823;SDS011;29470;53.550;9.926;2023-04-29T07:32:28;8.73;;;5.13;;
43823;SDS011;29470;53.550;9.926;2023-04-29T07:37:37;10.00;;;5.65;;
43823;SDS011;29470;53.550;9.926;2023-04-29T07:42:44;9.13;;;5.60;;
43823;SDS011;29470;53.550;9.926;2023-04-29T07:47:47;8.82;;;4.70;;
43823;SDS011;29470;53.550;9.926;2023-04-29T07:53:00;7.60;;;5.10;;
43823;SDS011;29470;53.550;9.926;2023-04-29T07:58:03;8.88;;;5.00;;
43823;SDS011;29470;53.550;9.926;2023-04-29T08:03:07;8.30;;;5.30;;
43823;SDS011;29470;53.550;9.926;2023-04-29T08:08:19;10.40;;;5.32;;
43823;SDS011;29470;53.550;9.926;2023-04-29T08:13:24;7.93;;;4.97;;
43823;SDS011;29470;53.550;9.926;2023-04-29T08:18:28;7.72;;;5.40;;
43823;SDS011;29470;53.550;9.926;2023-04-29T08:23:32;9.52;;;5.32;;
43823;SDS011;29470;53.550;9.926;2023-04-29T08:28:35;8.02;;;5.25;;
43823;SDS011;29470;53.550;9.926;2023-04-29T08:33:39;9.68;;;5.57;;
43823;SDS011;29470;53.550;9.926;2023-04-29T08:38:44;10.05;;;5.70;;
43823;SDS011;29470;53.550;9.926;2023-04-29T08:43:47;9.88;;;5.65;;
43823;SDS011;29470;53.550;9.926;2023-04-29T08:48:50;9.35;;;5.70;;
43823;SDS011;29470;53.550;9.926;2023-04-29T08:53:56;9.27;;;5.80;;
43823;SDS011;29470;53.550;9.926;2023-04-29T08:58:59;9.15;;;5.72;;
43823;SDS011;29470;53.550;9.926;2023-04-29T09:04:07;13.07;;;6.30;;
43823;SDS011;29470;53.550;9.926;2023-04-29T09:09:17;9.32;;;6.00;;
43823;SDS011;29470;53.550;9.926;2023-04-29T09:14:21;11.27;;;6.10;;
43823;SDS011;29470;53.550;9.926;2023-04-29T09:19:29;9.57;;;5.63;;
43823;SDS011;29470;53.550;9.926;2023-04-29T09:24:34;11.18;;;5.88;;
43823;SDS011;29470;53.550;9.926;2023-04-29T09:29:38;9.30;;;5.40;;
43823;SDS011;29470;53.550;9.926;2023-04-29T09:35:15;10.95;;;5.38;;
43823;SDS011;29470;53.550;9.926;2023-04-29T09:40:28;7.82;;;5.15;;
43823;SDS011;29470;53.550;9.926;2023-04-29T09:45:32;11.88;;;6.00;;
43823;SDS011;29470;53.550;9.926;2023-04-29T09:50:37;7.97;;;4.68;;
43823;SDS011;29470;53.550;9.926;2023-04-29T09:55:58;8.52;;;5.10;;
43823;SDS011;29470;53.550;9.926;2023-04-29T10:01:01;10.27;;;5.13;;
43823;SDS011;29470;53.550;9.926;2023-04-29T10:06:11;9.43;;;4.63;;
43823;SDS011;29470;53.550;9.926;2023-04-29T10:11:26;8.68;;;5.30;;
43823;SDS011;29470;53.550;9.926;2023-04-29T10:16:33;9.20;;;5.32;;
43823;SDS011;29470;53.550;9.926;2023-04-29T10:21:44;10.00;;;4.97;;
43823;SDS011;29470;53.550;9.926;2023-04-29T10:26:59;10.85;;;5.43;;
43823;SDS011;29470;53.550;9.926;2023-04-29T10:32:03;10.40;;;6.25;;
43823;SDS011;29470;53.550;9.926;2023-04-29T10:37:11;8.73;;;4.88;;
43823;SDS011;29470;53.550;9.926;2023-04-29T10:42:20;10.80;;;5.78;;
43823;SDS011;29470;53.550;9.926;2023-04-29T10:57:57;8.93;;;5.82;;
43823;SDS011;29470;53.550;9.926;2023-04-29T11:03:04;9.27;;;5.60;;
43823;SDS011;29470;53.550;9.926;2023-04-29T11:08:08;11.55;;;6.13;;
43823;SDS011;29470;53.550;9.926;2023-04-29T11:13:24;12.43;;;6.75;;
43823;SDS011;29470;53.550;9.926;2023-04-29T11:18:28;9.75;;;5.95;;
43823;SDS011;29470;53.550;9.926;2023-04-29T11:23:32;13.10;;;6.47;;
43823;SDS011;29470;53.550;9.926;2023-04-29T11:28:37;10.27;;;5.63;;
43823;SDS011;29470;53.550;9.926;2023-04-29T11:33:43;8.10;;;5.63;;
43823;SDS011;29470;53.550;9.926;2023-04-29T11:38:46;10.43;;;5.78;;
43823;SDS011;29470;53.550;9.926;2023-04-29T11:43:55;11.50;;;5.90;;
43823;SDS011;29470;53.550;9.926;2023-04-29T11:48:58;11.02;;;5.75;;
43823;SDS011;29470;53.550;9.926;2023-04-29T11:54:02;9.15;;;6.43;;
43823;SDS011;29470;53.550;9.926;2023-04-29T11:59:09;10.95;;;7.55;;
43823;SDS011;29470;53.550;9.926;2023-04-29T12:04:12;10.52;;;7.68;;
43823;SDS011;29470;53.550;9.926;2023-04-29T12:09:16;10.90;;;7.40;;
43823;SDS011;29470;53.550;9.926;2023-04-29T12:14:21;9.05;;;6.65;;
43823;SDS011;29470;53.550;9.926;2023-04-29T12:19:23;11.38;;;5.70;;
43823;SDS011;29470;53.550;9.926;2023-04-29T12:24:28;10.02;;;5.75;;
43823;SDS011;29470;53.550;9.926;2023-04-29T12:29:35;7.93;;;4.90;;
43823;SDS011;29470;53.550;9.926;2023-04-29T12:34:38;7.60;;;4.20;;
43823;SDS011;29470;53.550;9.926;2023-04-29T12:39:41;10.13;;;4.60;;
43823;SDS011;29470;53.550;9.926;2023-04-29T12:44:46;7.80;;;4.30;;
43823;SDS011;29470;53.550;9.926;2023-04-29T12:49:49;7.40;;;4.28;;
43823;SDS011;29470;53.550;9.926;2023-04-29T12:54:52;8.90;;;5.00;;
43823;SDS011;29470;53.550;9.926;2023-04-29T12:59:57;6.85;;;4.40;;
43823;SDS011;29470;53.550;9.926;2023-04-29T13:05:00;9.15;;;4.40;;
43823;SDS011;29470;53.550;9.926;2023-04-29T13:10:05;10.30;;;4.55;;
43823;SDS011;29470;53.550;9.926;2023-04-29T13:15:10;6.32;;;3.83;;
43823;SDS011;29470;53.550;9.926;2023-04-29T13:20:14;7.20;;;3.80;;
43823;SDS011;29470;53.550;9.926;2023-04-29T13:25:17;7.15;;;2.80;;
43823;SDS011;29470;53.550;9.926;2023-04-29T13:30:21;8.70;;;3.50;;
43823;SDS011;29470;53.550;9.926;2023-04-29T13:35:24;4.93;;;2.90;;
43823;SDS011;29470;53.550;9.926;2023-04-29T13:40:27;6.50;;;2.78;;
43823;SDS011;29470;53.550;9.926;2023-04-29T13:45:40;4.20;;;2.20;;
43823;SDS011;29470;53.550;9.926;2023-04-29T13:50:48;5.60;;;2.58;;
43823;SDS011;29470;53.550;9.926;2023-04-29T13:56:11;4.57;;;2.30;;
43823;SDS011;29470;53.550;9.926;2023-04-29T14:01:18;7.70;;;2.90;;
43823;SDS011;29470;53.550;9.926;2023-04-29T14:06:25;5.75;;;2.97;;
43823;SDS011;29470;53.550;9.926;2023-04-29T14:11:28;7.22;;;2.90;;
43823;SDS011;29470;53.550;9.926;2023-04-29T14:16:33;10.73;;;3.38;;
43823;SDS011;29470;53.550;9.926;2023-04-29T14:21:36;5.13;;;2.80;;
43823;SDS011;29470;53.550;9.926;2023-04-29T14:26:39;6.38;;;3.33;;
43823;SDS011;29470;53.550;9.926;2023-04-29T14:31:43;6.93;;;3.63;;
43823;SDS011;29470;53.550;9.926;2023-04-29T14:36:46;4.45;;;2.80;;
43823;SDS011;29470;53.550;9.926;2023-04-29T14:41:49;5.97;;;2.90;;
43823;SDS011;29470;53.550;9.926;2023-04-29T14:46:53;6.10;;;3.10;;
43823;SDS011;29470;53.550;9.926;2023-04-29T14:51:56;6.50;;;3.28;;
43823;SDS011;29470;53.550;9.926;2023-04-29T14:57:00;3.70;;;2.47;;
43823;SDS011;29470;53.550;9.926;2023-04-29T15:02:04;3.30;;;2.33;;
43823;SDS011;29470;53.550;9.926;2023-04-29T15:07:08;6.03;;;2.60;;
43823;SDS011;29470;53.550;9.926;2023-04-29T15:12:11;5.97;;;2.28;;
43823;SDS011;29470;53.550;9.926;2023-04-29T15:17:16;3.28;;;1.90;;
43823;SDS011;29470;53.550;9.926;2023-04-29T15:22:19;5.25;;;2.03;;
43823;SDS011;29470;53.550;9.926;2023-04-29T15:27:23;2.95;;;2.05;;
43823;SDS011;29470;53.550;9.926;2023-04-29T15:32:27;4.93;;;2.22;;
43823;SDS011;29470;53.550;9.926;2023-04-29T15:37:33;4.30;;;2.50;;
43823;SDS011;29470;53.550;9.926;2023-04-29T15:42:44;4.00;;;2.20;;
43823;SDS011;29470;53.550;9.926;2023-04-29T15:47:48;5.00;;;2.40;;
43823;SDS011;29470;53.550;9.926;2023-04-29T15:52:52;5.10;;;1.95;;
43823;SDS011;29470;53.550;9.926;2023-04-29T15:57:56;4.60;;;1.77;;
43823;SDS011;29470;53.550;9.926;2023-04-29T16:03:00;4.43;;;2.38;;
43823;SDS011;29470;53.550;9.926;2023-04-29T16:08:03;5.90;;;2.33;;
43823;SDS011;29470;53.550;9.926;2023-04-29T16:13:06;3.25;;;2.10;;
43823;SDS011;29470;53.550;9.926;2023-04-29T16:18:11;4.80;;;2.10;;
43823;SDS011;29470;53.550;9.926;2023-04-29T16:23:15;3.83;;;1.83;;
43823;SDS011;29470;53.550;9.926;2023-04-29T16:28:18;6.65;;;2.47;;
43823;SDS011;29470;53.550;9.926;2023-04-29T16:33:22;5.18;;;2.33;;
43823;SDS011;29470;53.550;9.926;2023-04-29T16:38:25;4.07;;;1.95;;
43823;SDS011;29470;53.550;9.926;2023-04-29T16:43:28;6.13;;;1.98;;
43823;SDS011;29470;53.550;9.926;2023-04-29T16:48:32;7.78;;;2.58;;
43823;SDS011;29470;53.550;9.926;2023-04-29T16:53:36;7.72;;;2.28;;
43823;SDS011;29470;53.550;9.926;2023-04-29T16:58:39;6.72;;;2.05;;
43823;SDS011;29470;53.550;9.926;2023-04-29T17:03:52;4.57;;;2.10;;
43823;SDS011;29470;53.550;9.926;2023-04-29T17:09:34;9.40;;;2.30;;
43823;SDS011;29470;53.550;9.926;2023-04-29T17:14:37;4.07;;;2.00;;
43823;SDS011;29470;53.550;9.926;2023-04-29T17:19:42;6.90;;;1.83;;
43823;SDS011;29470;53.550;9.926;2023-04-29T17:24:45;6.15;;;2.08;;
43823;SDS011;29470;53.550;9.926;2023-04-29T17:29:49;8.55;;;2.65;;
43823;SDS011;29470;53.550;9.926;2023-04-29T17:34:54;4.10;;;2.00;;
43823;SDS011;29470;53.550;9.926;2023-04-29T17:39:58;6.13;;;1.48;;
43823;SDS011;29470;53.550;9.926;2023-04-29T17:45:01;5.10;;;1.50;;
43823;SDS011;29470;53.550;9.926;2023-04-29T17:50:06;5.55;;;2.13;;
43823;SDS011;29470;53.550;9.926;2023-04-29T17:55:09;5.93;;;1.55;;
43823;SDS011;29470;53.550;9.926;2023-04-29T18:00:12;4.70;;;2.25;;
43823;SDS011;29470;53.550;9.926;2023-04-29T18:05:17;6.03;;;2.17;;
43823;SDS011;29470;53.550;9.926;2023-04-29T18:10:21;6.28;;;1.95;;
43823;SDS011;29470;53.550;9.926;2023-04-29T18:15:24;8.82;;;3.05;;
43823;SDS011;29470;53.550;9.926;2023-04-29T18:20:28;7.63;;;3.13;;
43823;SDS011;29470;53.550;9.926;2023-04-29T18:25:34;12.68;;;2.58;;
43823;SDS011;29470;53.550;9.926;2023-04-29T18:30:38;9.85;;;2.13;;
43823;SDS011;29470;53.550;9.926;2023-04-29T18:35:42;6.55;;;2.10;;
43823;SDS011;29470;53.550;9.926;2023-04-29T18:40:45;5.88;;;2.45;;
43823;SDS011;29470;53.550;9.926;2023-04-29T18:45:48;9.73;;;2.70;;
43823;SDS011;29470;53.550;9.926;2023-04-29T18:50:53;12.85;;;2.70;;
43823;SDS011;29470;53.550;9.926;2023-04-29T18:55:59;12.35;;;3.33;;
43823;SDS011;29470;53.550;9.926;2023-04-29T19:01:02;12.73;;;3.30;;
43823;SDS011;29470;53.550;9.926;2023-04-29T19:06:06;14.35;;;2.88;;
43823;SDS011;29470;53.550;9.926;2023-04-29T19:11:09;9.90;;;3.00;;
43823;SDS011;29470;53.550;9.926;2023-04-29T19:16:12;7.55;;;3.10;;
43823;SDS011;29470;53.550;9.926;2023-04-29T19:21:17;9.13;;;3.20;;
43823;SDS011;29470;53.550;9.926;2023-04-29T19:26:20;7.82;;;2.35;;
43823;SDS011;29470;53.550;9.926;2023-04-29T19:31:23;7.07;;;2.28;;
43823;SDS011;29470;53.550;9.926;2023-04-29T19:36:27;7.45;;;2.25;;
43823;SDS011;29470;53.550;9.926;2023-04-29T19:41:30;5.97;;;1.88;;
43823;SDS011;29470;53.550;9.926;2023-04-29T19:46:35;5.82;;;1.77;;
43823;SDS011;29470;53.550;9.926;2023-04-29T19:51:40;6.78;;;1.70;;
43823;SDS011;29470;53.550;9.926;2023-04-29T19:56:43;6.18;;;1.98;;
43823;SDS011;29470;53.550;9.926;2023-04-29T20:01:46;4.68;;;1.45;;
43823;SDS011;29470;53.550;9.926;2023-04-29T20:06:50;4.20;;;1.40;;
43823;SDS011;29470;53.550;9.926;2023-04-29T20:11:53;7.53;;;1.70;;
43823;SDS011;29470;53.550;9.926;2023-04-29T20:16:56;7.75;;;1.90;;
43823;SDS011;29470;53.550;9.926;2023-04-29T20:22:02;7.47;;;1.90;;
43823;SDS011;29470;53.550;9.926;2023-04-29T20:27:05;8.30;;;2.15;;
43823;SDS011;29470;53.550;9.926;2023-04-29T20:32:11;7.72;;;2.17;;
43823;SDS011;29470;53.550;9.926;2023-04-29T20:37:18;8.77;;;2.30;;
43823;SDS011;29470;53.550;9.926;2023-04-29T20:42:21;6.32;;;2.38;;
43823;SDS011;29470;53.550;9.926;2023-04-29T20:47:24;8.32;;;2.40;;
43823;SDS011;29470;53.550;9.926;2023-04-29T20:52:29;11.15;;;3.65;;
43823;SDS011;29470;53.550;9.926;2023-04-29T20:57:32;15.15;;;4.15;;
43823;SDS011;29470;53.550;9.926;2023-04-29T21:19:40;13.43;;;3.40;;
43823;SDS011;29470;53.550;9.926;2023-04-29T21:25:30;13.00;;;3.70;;
43823;SDS011;29470;53.550;9.926;2023-04-29T21:30:43;12.98;;;3.30;;
43823;SDS011;29470;53.550;9.926;2023-04-29T21:36:20;12.93;;;3.20;;
43823;SDS011;29470;53.550;9.926;2023-04-29T21:41:37;9.90;;;3.65;;
43823;SDS011;29470;53.550;9.926;2023-04-29T21:46:47;12.73;;;3.28;;
43823;SDS011;29470;53.550;9.926;2023-04-29T21:52:04;14.43;;;4.15;;
43823;SDS011;29470;53.550;9.926;2023-04-29T21:57:09;10.23;;;3.40;;
43823;SDS011;29470;53.550;9.926;2023-04-29T22:02:42;11.05;;;3.70;;
43823;SDS011;29470;53.550;9.926;2023-04-29T22:07:45;13.10;;;3.50;;
43823;SDS011;29470;53.550;9.926;2023-04-29T22:13:20;12.98;;;3.60;;
43823;SDS011;29470;53.550;9.926;2023-04-29T22:18:23;12.60;;;3.58;;
43823;SDS011;29470;53.550;9.926;2023-04-29T22:23:44;10.52;;;3.88;;
43823;SDS011;29470;53.550;9.926;2023-04-29T22:28:51;9.03;;;3.40;;
43823;SDS011;29470;53.550;9.926;2023-04-29T22:33:55;9.20;;;3.17;;
43823;SDS011;29470;53.550;9.926;2023-04-29T22:38:58;8.50;;;3.00;;
43823;SDS011;29470;53.550;9.926;2023-04-29T22:44:05;10.52;;;3.30;;
43823;SDS011;29470;53.550;9.926;2023-04-29T22:49:10;10.40;;;3.42;;
43823;SDS011;29470;53.550;9.926;2023-04-29T22:54:16;9.38;;;3.13;;
43823;SDS011;29470;53.550;9.926;2023-04-29T22:59:35;12.45;;;3.47;;
43823;SDS011;29470;53.550;9.926;2023-04-29T23:05:38;11.02;;;3.15;;
43823;SDS011;29470;53.550;9.926;2023-04-29T23:10:45;11.27;;;3.75;;
43823;SDS011;29470;53.550;9.926;2023-04-29T23:15:51;7.20;;;2.65;;
43823;SDS011;29470;53.550;9.926;2023-04-29T23:21:01;14.43;;;3.95;;
43823;SDS011;29470;53.550;9.926;2023-04-29T23:26:03;11.73;;;4.10;;
43823;SDS011;29470;53.550;9.926;2023-04-29T23:31:08;8.35;;;3.10;;
43823;SDS011;29470;53.550;9.926;2023-04-29T23:36:13;12.52;;;3.50;;
43823;SDS011;29470;53.550;9.926;2023-04-29T23:41:20;9.80;;;3.55;;
43823;SDS011;29470;53.550;9.926;2023-04-29T23:46:25;12.80;;;3.60;;
43823;SDS011;29470;53.550;9.926;2023-04-29T23:51:28;10.10;;;3.55;;
43823;SDS011;29470;53.550;9.926;2023-04-29T23:56:32;9.52;;;3.00;;
